Terminal Aerodrome Forecast
Issued by NWS

Home | Current Version | Previous Version | Text Only | Print | Product List | Glossary On
Versions: 1 2 3 4 5 6 7 8 9 10 11 12 13 14 15 16 17 18 19
888
FTUS43 KGRB 280524
TAFAUW
TAF
KAUW 280524Z 2806/2906 03004KT 6SM BR FEW002 SCT025
      TEMPO 2806/2808 3SM BR SCT002 BKN025
     FM280800 36003KT 2SM BR SCT002
      TEMPO 2808/2812 1/2SM FG BKN002
     FM281400 05006KT P6SM SKC=

USA.gov is the U.S. government's official web portal to all federal, state and local government web resources and services.